Flight Track Log - Related Links

Times and Time Zones

All times are in EDT time to prevent confusion due to time zone crossing. See the CSN3972 flight status page for this flight to view local times or setup timezone preferences in your user account.

Time Position Orientation Groundspeed Altitude Reporting Facility
EDT Latitude Longitude Course Direction KTS MPH feet Rate Location/Type
Wed 02:42:00 AM 23.4918 113.3032 North  Level Estimated
Wed 02:43:00 AM 23.5793 113.3070 North  Level Estimated
Wed 02:44:00 AM 23.6669 113.3109 North  Level Estimated
Wed 02:45:00 AM 23.7545 113.3148 North  Level Estimated
Wed 02:46:00 AM 23.8421 113.3186 North  Level Estimated
Wed 02:47:00 AM 23.9297 113.3225 North  Level Estimated
Wed 02:48:00 AM 24.0173 113.3264 North  Level Estimated
Wed 02:49:00 AM 24.1049 113.3303 North  Level Estimated
Wed 02:50:00 AM 24.1924 113.3342 North  Level Estimated
Wed 02:51:00 AM 24.2800 113.3381 North  Level Estimated
Wed 02:52:00 AM 24.3676 113.3420 North  Level Estimated
Wed 02:53:00 AM 24.4552 113.3459 North  Level Estimated
Wed 02:54:00 AM 24.5428 113.3499 North  Level Estimated
Wed 02:55:00 AM 24.6304 113.3538 North  Level Estimated
Wed 02:56:00 AM 24.7179 113.3577 North  Level Estimated
Wed 02:57:00 AM 24.8055 113.3617 North  Level Estimated
Wed 02:58:00 AM 24.8931 113.3656 North  Level Estimated
Wed 02:59:00 AM 24.9807 113.3696 North  Level Estimated
Wed 03:00:00 AM 25.0683 113.3735 North  Level Estimated
Wed 03:01:00 AM 25.1558 113.3775 North  Level Estimated
Wed 03:02:00 AM 25.2434 113.3814 North  Level Estimated
Wed 03:03:00 AM 25.3310 113.3854 North  Level Estimated
Wed 03:04:00 AM 25.4186 113.3894 North  Level Estimated
Wed 03:05:00 AM 25.5062 113.3934 North  Level Estimated
Wed 03:06:00 AM 25.5938 113.3973 North  Level Estimated
Wed 03:07:00 AM 25.6814 113.4013 North  Level Estimated
Wed 03:08:00 AM 25.7689 113.4053 North  Level Estimated
Wed 03:09:00 AM 25.8565 113.4093 North  Level Estimated
Wed 03:10:00 AM 25.9441 113.4134 North  Level Estimated
Wed 03:11:00 AM 26.0452 113.4180 North  Level Estimated
Wed 03:12:00 AM 26.1463 113.4227 North  Level Estimated
Wed 03:13:00 AM 26.2474 113.4273 North  Level Estimated
Wed 03:14:00 AM 26.3486 113.4320 North  Level Estimated
Wed 03:15:00 AM 26.4497 113.4366 North  Level Estimated
Wed 03:16:00 AM 26.5508 113.4413 North  Level Estimated
Wed 03:17:00 AM 26.6519 113.4460 North  Level Estimated
Wed 03:18:00 AM 26.7530 113.4507 North  Level Estimated
Wed 03:19:00 AM 26.8542 113.4554 North  Level Estimated
Wed 03:20:00 AM 26.9553 113.4601 North  Level Estimated
Wed 03:21:00 AM 27.0564 113.4649 North  Level Estimated
Wed 03:22:00 AM 27.1575 113.4696 North  Level Estimated
Wed 03:23:00 AM 27.2586 113.4743 North  Level Estimated
Wed 03:24:00 AM 27.3597 113.4791 North  Level Estimated
Wed 03:25:00 AM 27.4608 113.4838 North  Level Estimated
Wed 03:26:00 AM 27.5620 113.4886 North  Level Estimated
Wed 03:27:00 AM 27.6631 113.4934 North  Level Estimated
Wed 03:28:00 AM 27.7642 113.4982 North  Level Estimated
Wed 03:29:00 AM 27.8653 113.5029 North  Level Estimated
Wed 03:30:00 AM 27.9664 113.5077 North  Level Estimated
Wed 03:31:00 AM 28.0675 113.5126 North  Level Estimated
Wed 03:32:00 AM 28.1687 113.5174 North  Level Estimated
Wed 03:33:00 AM 28.2698 113.5222 North  Level Estimated
Wed 03:34:00 AM 28.3709 113.5270 North  Level Estimated
Wed 03:35:00 AM 28.4720 113.5319 North  Level Estimated
Wed 03:36:00 AM 28.5731 113.5367 North  Level Estimated
Wed 03:37:00 AM 28.6742 113.5416 North  Level Estimated
Wed 03:38:00 AM 28.7753 113.5465 North  Level Estimated
Wed 03:39:00 AM 28.8764 113.5514 North  Level Estimated
Wed 03:40:00 AM 28.9776 113.5563 North  Level Estimated
Wed 03:41:00 AM 29.0787 113.5612 North  Level Estimated
Wed 03:42:00 AM 29.1798 113.5661 North  Level Estimated
Wed 03:43:00 AM 29.2809 113.5710 North  Level Estimated
Wed 03:44:00 AM 29.3820 113.5759 North  Level Estimated
Wed 03:45:00 AM 29.4831 113.5809 North  Level Estimated
Wed 03:46:00 AM 29.5842 113.5858 North  Level Estimated
Wed 03:47:00 AM 29.6854 113.5908 North  Level Estimated
Wed 03:48:00 AM 29.7865 113.5958 North  Level Estimated
Wed 03:49:00 AM 29.8876 113.6007 North  Level Estimated
Wed 03:50:00 AM 29.9887 113.6057 North  Level Estimated
Wed 03:51:00 AM 30.0898 113.6107 North  Level Estimated
Wed 03:52:00 AM 30.1909 113.6157 North  Level Estimated
Wed 03:53:00 AM 30.2920 113.6208 North  Level Estimated
Wed 03:54:00 AM 30.3931 113.6258 North  Level Estimated
Wed 03:55:00 AM 30.4942 113.6308 North  Level Estimated
Wed 03:56:00 AM 30.5954 113.6359 North  Level Estimated
Wed 03:57:00 AM 30.6965 113.6410 North  Level Estimated
Wed 03:58:00 AM 30.7976 113.6460 North  Level Estimated
Wed 03:59:00 AM 30.8987 113.6511 North  Level Estimated
Wed 04:00:00 AM 30.9998 113.6562 North  Level Estimated
Wed 04:01:00 AM 31.1009 113.6613 North  Level Estimated
Wed 04:02:00 AM 31.2020 113.6664 North  Level Estimated
Wed 04:03:00 AM 31.3031 113.6716 North  Level Estimated
Wed 04:04:00 AM 31.4042 113.6767 North  Level Estimated
Wed 04:05:00 AM 31.5053 113.6819 North  Level Estimated
Wed 04:06:00 AM 31.6064 113.6870 North  Level Estimated
Wed 04:07:00 AM 31.7076 113.6922 North  Level Estimated
Wed 04:08:00 AM 31.8086 113.6974 North  Level Estimated
Wed 04:09:00 AM 31.9098 113.7026 North  Level Estimated
Wed 04:10:00 AM 32.0109 113.7078 North  Level Estimated
Wed 04:11:00 AM 32.1120 113.7130 North  Level Estimated
Wed 04:12:00 AM 32.2131 113.7182 North  Level Estimated
Wed 04:13:00 AM 32.3142 113.7235 North  Level Estimated
Wed 04:14:00 AM 32.4153 113.7287 North  Level Estimated
Wed 04:15:00 AM 32.5164 113.7340 North  Level Estimated
Wed 04:16:00 AM 32.6175 113.7393 North  Level Estimated
Wed 04:17:00 AM 32.7186 113.7446 North  Level Estimated
Wed 04:18:00 AM 32.8197 113.7499 North  Level Estimated
Wed 04:19:00 AM 32.9208 113.7552 North  Level Estimated
Wed 04:20:00 AM 33.0219 113.7605 North  Level Estimated
Wed 04:21:00 AM 33.1230 113.7658 North  Level Estimated
Wed 04:22:00 AM 33.2241 113.7712 North  Level Estimated
Wed 04:23:00 AM 33.3252 113.7766 North  Level Estimated
Wed 04:24:00 AM 33.4263 113.7819 North  Level Estimated
Wed 04:25:00 AM 33.5275 113.7873 North  Level Estimated
Wed 04:26:00 AM 33.6286 113.7927 North  Level Estimated
Wed 04:27:00 AM 33.7297 113.7981 North  Level Estimated
Wed 04:28:00 AM 33.8308 113.8036 North  Level Estimated
Wed 04:29:00 AM 33.9319 113.8090 North  Level Estimated
Wed 04:30:00 AM 34.0330 113.8145 North  Level Estimated
Wed 04:31:00 AM 34.1341 113.8199 North  Level Estimated
Wed 04:32:00 AM 34.2352 113.8254 North  Level Estimated
Wed 04:33:00 AM 34.3363 113.8309 North  Level Estimated
Wed 04:34:00 AM 34.4374 113.8364 North  Level Estimated
Wed 04:35:00 AM 34.5197 113.8409 North  Level Estimated
Wed 04:36:00 AM 34.5197 113.8409 North  Level Estimated
Wed 04:37:00 AM 34.5197 113.8409 North  Level Estimated
Wed 04:38:00 AM 34.5197 113.8409 North  Level Estimated
Wed 04:39:00 AM 34.5197 113.8409 North  Level Estimated
Wed 04:40:00 AM 34.5197 113.8409 North  Level Estimated
Wed 04:41:00 AM 34.5197 113.8409 North  Level Estimated
Wed 04:42:00 AM 34.5197 113.8409 North  Level Estimated
Wed 04:43:00 AM 34.5197 113.8409 North  Level Estimated
Wed 04:44:00 AM 34.5197 113.8409 North  Level Estimated
Wed 04:45:00 AM 34.5197 113.8409 North  Level Estimated
Wed 04:46:00 AM 34.5197 113.8409 North  Level Estimated
Wed 04:47:00 AM 34.5197 113.8409 North  Level Estimated
Wed 04:48:00 AM 34.5197 113.8409 North  Level Estimated
Wed 04:49:00 AM 34.5197 113.8409 North  Level Estimated
Wed 04:50:00 AM 34.5197 113.8409 North  Level Estimated
Wed 04:51:00 AM 34.5197 113.8409 North  Level Estimated
Wed 04:52:00 AM 34.5197 113.8409 North  Level Estimated
Wed 04:53:00 AM 34.5197 113.8409 North  Level Estimated
Wed 04:54:00 AM 34.5197 113.8409 North  Level Estimated
Wed 04:55:00 AM 34.5197 113.8409 North  Level Estimated
Wed 04:56:00 AM 34.5197 113.8409 North  Level Estimated
Wed 04:57:00 AM 34.5197 113.8409 North  Level Estimated
Wed 04:58:00 AM 34.5197 113.8409 North  Level Estimated
Wed 04:59:00 AM 34.5197 113.8409 North  Level Estimated
Wed 05:00:00 AM 34.5197 113.8409 North  Level Estimated
Wed 05:01:00 AM 34.5197 113.8409 North  Level Estimated
Wed 05:02:00 AM 34.5197 113.8409 North  Level Estimated
Wed 05:03:00 AM 34.5197 113.8409 North  Level Estimated
Wed 05:04:00 AM 34.5197 113.8409 North  Level Estimated
Wed 05:05:00 AM 34.5197 113.8409 North  Level Estimated
Wed 05:06:00 AM 34.5197 113.8409 North  Level Estimated
Wed 05:07:00 AM 34.5197 113.8409 North  Level Estimated
Wed 05:08:00 AM 34.5197 113.8409 North  Level Estimated
Wed 05:09:00 AM 34.5197 113.8409 North  Level Estimated
Wed 05:10:00 AM 34.5197 113.8409 North  Level Estimated
Wed 05:11:00 AM 34.5197 113.8409 North  Level Estimated
Wed 05:12:00 AM 34.5197 113.8409 North  Level Estimated
Wed 05:13:00 AM 34.5197 113.8409 North  Level Estimated

Login

Don't have an account? Register now (free) for customized features, flight alerts, and more!